PWSweather.com
Personal Weather Stations
Station Observations
J24K28P63
Vysocina, PocatkyCZ 39464

VysocinaPocatkyCZ 39464

Lat: 49.2594238, Lon: 15.2331769

Elevation: 2011

Station Type: Vantage Pro2+

http://meteo-jirkalina.com

Latest ConditionsUpdated 1:30:13 PM GMT+01:01 Wednesday, May 23, 2018
Currently Today's Max Today's Min Today's Average
Temperature 72.1°F22.3°C 77.5°F25.3°C 53.5°F11.9°C 65.7°F18.7°C
Dew Point 50.2°F10.1°C 63.7°F17.6°C 50.2°F10.1°C 58.4°F14.7°C
Winds 6.6 mph SE10.6 kmh SE 15.0 mph NE24.1 kmh NE - 4.6 mph 7.4 kmh
Wind Gusts 9.0 mph14.5 kmh 20.0 mph32.2 kmh - -
Humidity 46% 98% 46% 79%
Pressure 29.99 in1015.6 mb 30.06 in1017.9 mb 29.89 in1012.2 mb -
Hour Temp Dew Point Humidity Winds Wind Gusts Pressure Precip Precip Rate Daily Precip Total
01:30 PM 76.9°F24.9°C 62.4°F16.9°C 61% 13.0 mph NE20.9 kmh NE 16.0 mph25.7 kmh 30.03 in1016.9 mb - 0.00 in0.0 mm 0.00 in0.0 mm
01:20 PM 77.5°F25.3°C 63.0°F17.2°C 61% 13.0 mph NE20.9 kmh NE 18.0 mph29.0 kmh 30.04 in1017.3 mb - 0.00 in0.0 mm 0.00 in0.0 mm
01:10 PM 76.5°F24.7°C 63.4°F17.4°C 64% 8.0 mph NE12.9 kmh NE 12.0 mph19.3 kmh 30.04 in1017.3 mb - 0.00 in0.0 mm 0.00 in0.0 mm
01:00 PM 77.0°F25.0°C 62.5°F16.9°C 61% 12.0 mph ENE19.3 kmh ENE 15.0 mph24.1 kmh 30.04 in1017.3 mb - 0.00 in0.0 mm 0.00 in0.0 mm
12:50 PM 76.2°F24.6°C 63.6°F17.6°C 65% 8.0 mph NE12.9 kmh NE 12.0 mph19.3 kmh 30.04 in1017.3 mb - 0.00 in0.0 mm 0.00 in0.0 mm
12:40 PM 74.7°F23.7°C 63.0°F17.2°C 67% 8.0 mph ENE12.9 kmh ENE 16.0 mph25.7 kmh 30.04 in1017.3 mb - 0.00 in0.0 mm 0.00 in0.0 mm
12:30 PM 74.5°F23.6°C 62.0°F16.7°C 65% 10.0 mph NE16.1 kmh NE 16.0 mph25.7 kmh 30.05 in1017.6 mb - 0.00 in0.0 mm 0.00 in0.0 mm
12:20 PM 75.2°F24.0°C 63.0°F17.2°C 66% 10.0 mph NE16.1 kmh NE 15.0 mph24.1 kmh 30.05 in1017.6 mb - 0.00 in0.0 mm 0.00 in0.0 mm
12:10 PM 74.7°F23.7°C 63.4°F17.4°C 68% 15.0 mph NE24.1 kmh NE 20.0 mph32.2 kmh 30.06 in1017.9 mb - 0.00 in0.0 mm 0.00 in0.0 mm
12:00 PM 74.1°F23.4°C 63.7°F17.6°C 70% 13.0 mph NE20.9 kmh NE 18.0 mph29.0 kmh 30.05 in1017.6 mb - 0.00 in0.0 mm 0.00 in0.0 mm
11:50 AM 73.5°F23.1°C 61.9°F16.6°C 67% 7.0 mph NE11.3 kmh NE 14.0 mph22.5 kmh 30.05 in1017.6 mb - 0.00 in0.0 mm 0.00 in0.0 mm
11:40 AM 73.8°F23.2°C 61.8°F16.6°C 66% 8.0 mph E12.9 kmh E 12.0 mph19.3 kmh 30.05 in1017.6 mb - 0.00 in0.0 mm 0.00 in0.0 mm
11:30 AM 74.8°F23.8°C 62.7°F17.1°C 66% 5.0 mph NE8.0 kmh NE 7.0 mph11.3 kmh 30.05 in1017.6 mb - 0.00 in0.0 mm 0.00 in0.0 mm
11:20 AM 75.0°F23.9°C 63.3°F17.4°C 67% 6.0 mph ENE9.7 kmh ENE 9.0 mph14.5 kmh 30.05 in1017.6 mb - 0.00 in0.0 mm 0.00 in0.0 mm
11:10 AM 74.1°F23.4°C 62.8°F17.1°C 68% 8.0 mph NE12.9 kmh NE 12.0 mph19.3 kmh 30.05 in1017.6 mb - 0.00 in0.0 mm 0.00 in0.0 mm
11:00 AM 73.5°F23.1°C 63.1°F17.3°C 70% 5.0 mph NE8.0 kmh NE 12.0 mph19.3 kmh 30.04 in1017.3 mb - 0.00 in0.0 mm 0.00 in0.0 mm
10:50 AM 72.6°F22.6°C 62.3°F16.8°C 70% 6.0 mph NE9.7 kmh NE 10.0 mph16.1 kmh 30.05 in1017.6 mb - 0.00 in0.0 mm 0.00 in0.0 mm
10:40 AM 72.6°F22.6°C 62.2°F16.8°C 70% 7.0 mph ENE11.3 kmh ENE 12.0 mph19.3 kmh 30.05 in1017.6 mb - 0.00 in0.0 mm 0.00 in0.0 mm
10:30 AM 72.8°F22.7°C 62.5°F16.9°C 70% 5.0 mph ENE8.0 kmh ENE 9.0 mph14.5 kmh 30.05 in1017.6 mb - 0.00 in0.0 mm 0.00 in0.0 mm
10:20 AM 72.3°F22.4°C 61.6°F16.4°C 69% 5.0 mph ENE8.0 kmh ENE 9.0 mph14.5 kmh 30.05 in1017.6 mb - 0.00 in0.0 mm 0.00 in0.0 mm
10:10 AM 72.1°F22.3°C 61.4°F16.3°C 69% 5.0 mph E8.0 kmh E 9.0 mph14.5 kmh 30.05 in1017.6 mb - 0.00 in0.0 mm 0.00 in0.0 mm
10:00 AM 73.0°F22.8°C 62.6°F17.0°C 70% 2.0 mph ESE3.2 kmh ESE 8.0 mph12.9 kmh 30.05 in1017.6 mb - 0.00 in0.0 mm 0.00 in0.0 mm
09:50 AM 72.5°F22.5°C 62.6°F17.0°C 71% 7.0 mph NE11.3 kmh NE 9.0 mph14.5 kmh 30.04 in1017.3 mb - 0.00 in0.0 mm 0.00 in0.0 mm
09:40 AM 71.9°F22.2°C 62.0°F16.7°C 71% 7.0 mph SE11.3 kmh SE 12.0 mph19.3 kmh 30.04 in1017.3 mb - 0.00 in0.0 mm 0.00 in0.0 mm
09:30 AM 72.5°F22.5°C 61.8°F16.6°C 69% 5.0 mph E8.0 kmh E 9.0 mph14.5 kmh 30.04 in1017.3 mb - 0.00 in0.0 mm 0.00 in0.0 mm
09:20 AM 70.9°F21.6°C 61.0°F16.1°C 71% 7.0 mph NE11.3 kmh NE 10.0 mph16.1 kmh 30.04 in1017.3 mb - 0.00 in0.0 mm 0.00 in0.0 mm
09:10 AM 72.4°F22.4°C 62.0°F16.7°C 70% 6.0 mph ENE9.7 kmh ENE 10.0 mph16.1 kmh 30.04 in1017.3 mb - 0.00 in0.0 mm 0.00 in0.0 mm
09:00 AM 72.1°F22.3°C 61.8°F16.6°C 70% 6.0 mph E9.7 kmh E 12.0 mph19.3 kmh 30.04 in1017.3 mb - 0.00 in0.0 mm 0.00 in0.0 mm
08:50 AM 71.4°F21.9°C 61.9°F16.6°C 72% 5.0 mph E8.0 kmh E 10.0 mph16.1 kmh 30.04 in1017.3 mb - 0.00 in0.0 mm 0.00 in0.0 mm
08:40 AM 69.4°F20.8°C 60.7°F15.9°C 74% 3.0 mph ESE4.8 kmh ESE 7.0 mph11.3 kmh 30.04 in1017.3 mb - 0.00 in0.0 mm 0.00 in0.0 mm
08:30 AM 69.6°F20.9°C 61.7°F16.5°C 76% 5.0 mph ENE8.0 kmh ENE 9.0 mph14.5 kmh 30.04 in1017.3 mb - 0.00 in0.0 mm 0.00 in0.0 mm
08:20 AM 68.5°F20.3°C 59.9°F15.5°C 74% 7.0 mph E11.3 kmh E 10.0 mph16.1 kmh 30.03 in1016.9 mb - 0.00 in0.0 mm 0.00 in0.0 mm
08:10 AM 69.8°F21.0°C 60.7°F15.9°C 73% 5.0 mph NE8.0 kmh NE 9.0 mph14.5 kmh 30.03 in1016.9 mb - 0.00 in0.0 mm 0.00 in0.0 mm
08:00 AM 69.3°F20.7°C 61.0°F16.1°C 75% 5.0 mph NE8.0 kmh NE 6.0 mph9.7 kmh 30.03 in1016.9 mb - 0.00 in0.0 mm 0.00 in0.0 mm
07:50 AM 69.5°F20.8°C 60.9°F16.1°C 74% 6.0 mph E9.7 kmh E 8.0 mph12.9 kmh 30.03 in1016.9 mb - 0.00 in0.0 mm 0.00 in0.0 mm
07:40 AM 68.8°F20.4°C 60.9°F16.1°C 76% 5.0 mph E8.0 kmh E 7.0 mph11.3 kmh 30.02 in1016.6 mb - 0.00 in0.0 mm 0.00 in0.0 mm
07:30 AM 68.4°F20.2°C 61.3°F16.3°C 78% 5.0 mph E8.0 kmh E 8.0 mph12.9 kmh 30.02 in1016.6 mb - 0.00 in0.0 mm 0.00 in0.0 mm
07:20 AM 67.4°F19.7°C 60.3°F15.7°C 78% 3.0 mph ENE4.8 kmh ENE 5.0 mph8.0 kmh 30.02 in1016.6 mb - 0.00 in0.0 mm 0.00 in0.0 mm
07:10 AM 66.3°F19.1°C 59.6°F15.3°C 79% 5.0 mph NE8.0 kmh NE 6.0 mph9.7 kmh 30.02 in1016.6 mb - 0.00 in0.0 mm 0.00 in0.0 mm
07:00 AM 65.8°F18.8°C 59.5°F15.3°C 80% 3.0 mph ENE4.8 kmh ENE 5.0 mph8.0 kmh 30.02 in1016.6 mb - 0.00 in0.0 mm 0.00 in0.0 mm
06:50 AM 64.1°F17.8°C 58.8°F14.9°C 83% 2.0 mph ENE3.2 kmh ENE 3.0 mph4.8 kmh 30.02 in1016.6 mb - 0.00 in0.0 mm 0.00 in0.0 mm
06:40 AM 62.7°F17.1°C 58.8°F14.9°C 87% 1.0 mph ENE1.6 kmh ENE 2.0 mph3.2 kmh 30.02 in1016.6 mb - 0.00 in0.0 mm 0.00 in0.0 mm
06:30 AM 60.7°F15.9°C 57.8°F14.3°C 90% 1.0 mph ENE1.6 kmh ENE 2.0 mph3.2 kmh 30.01 in1016.3 mb - 0.00 in0.0 mm 0.00 in0.0 mm
06:20 AM 59.9°F15.5°C 57.5°F14.2°C 92% 1.0 mph ENE1.6 kmh ENE 2.0 mph3.2 kmh 30.01 in1016.3 mb - 0.00 in0.0 mm 0.00 in0.0 mm
06:10 AM 59.4°F15.2°C 57.4°F14.1°C 93% Calm Calm -- 30.01 in1016.3 mb - 0.00 in0.0 mm 0.00 in0.0 mm
06:00 AM 58.8°F14.9°C 57.1°F13.9°C 94% Calm Calm 1.0 mph1.6 kmh 30.01 in1016.3 mb - 0.00 in0.0 mm 0.00 in0.0 mm
05:50 AM 57.5°F14.2°C 56.1°F13.4°C 95% Calm Calm -- 30.00 in1015.9 mb - 0.00 in0.0 mm 0.00 in0.0 mm
05:40 AM 56.8°F13.8°C 55.7°F13.2°C 96% 1.0 mph ENE1.6 kmh ENE 2.0 mph3.2 kmh 30.00 in1015.9 mb - 0.00 in0.0 mm 0.00 in0.0 mm
05:30 AM 55.6°F13.1°C 54.7°F12.6°C 97% Calm Calm -- 30.00 in1015.9 mb - 0.00 in0.0 mm 0.00 in0.0 mm
05:20 AM 54.1°F12.3°C 53.0°F11.7°C 96% Calm Calm -- 29.99 in1015.6 mb - 0.00 in0.0 mm 0.00 in0.0 mm
05:10 AM 54.0°F12.2°C 52.9°F11.6°C 96% Calm Calm -- 29.99 in1015.6 mb - 0.00 in0.0 mm 0.00 in0.0 mm
05:00 AM 53.9°F12.2°C 52.8°F11.6°C 96% Calm Calm -- 29.98 in1015.2 mb - 0.00 in0.0 mm 0.00 in0.0 mm
04:50 AM 53.7°F12.1°C 52.6°F11.4°C 96% Calm Calm -- 29.98 in1015.2 mb - 0.00 in0.0 mm 0.00 in0.0 mm
04:40 AM 53.5°F11.9°C 52.4°F11.3°C 96% Calm Calm -- 29.98 in1015.2 mb - 0.00 in0.0 mm 0.00 in0.0 mm
04:30 AM 53.5°F11.9°C 52.4°F11.3°C 96% Calm Calm -- 29.98 in1015.2 mb - 0.00 in0.0 mm 0.00 in0.0 mm
04:00 AM 54.5°F12.5°C 53.4°F11.9°C 96% Calm Calm -- 29.90 in1012.5 mb - 0.00 in0.0 mm 0.00 in0.0 mm
03:30 AM 54.8°F12.7°C 53.7°F12.1°C 96% 2.6 mph E4.2 kmh E 5.0 mph8.0 kmh 29.89 in1012.2 mb - 0.00 in0.0 mm 0.00 in0.0 mm
03:00 AM 54.7°F12.6°C 53.0°F11.7°C 94% 1.3 mph E2.1 kmh E -- 29.89 in1012.2 mb - 0.00 in0.0 mm 0.00 in0.0 mm
02:30 AM 54.8°F12.7°C 52.8°F11.6°C 93% 0.4 mph E0.6 kmh E 1.0 mph1.6 kmh 29.89 in1012.2 mb - 0.00 in0.0 mm 0.00 in0.0 mm
02:00 AM 55.6°F13.1°C 52.7°F11.5°C 90% 1.6 mph E2.6 kmh E 4.0 mph6.4 kmh 29.89 in1012.2 mb - 0.00 in0.0 mm 0.00 in0.0 mm
01:30 AM 56.2°F13.4°C 53.0°F11.7°C 89% 2.3 mph E3.7 kmh E 4.0 mph6.4 kmh 29.90 in1012.5 mb - 0.00 in0.0 mm 0.00 in0.0 mm
01:00 AM 56.9°F13.8°C 53.1°F11.7°C 87% 2.8 mph E4.5 kmh E 4.0 mph6.4 kmh 29.90 in1012.5 mb - 0.00 in0.0 mm 0.00 in0.0 mm
12:30 AM 57.6°F14.2°C 53.1°F11.7°C 85% 1.7 mph E2.7 kmh E 6.0 mph9.7 kmh 29.91 in1012.9 mb - 0.00 in0.0 mm 0.00 in0.0 mm
12:00 AM 58.1°F14.5°C 52.6°F11.4°C 82% 1.1 mph E1.8 kmh E 6.0 mph9.7 kmh 29.91 in1012.9 mb - 0.00 in0.0 mm 0.00 in0.0 mm